Time;durP1;ratioP1;P1;durP2;ratioP2;P2;SDS_P1;SDS_P2;PMS_P1;PMS_P2;Temp;Humidity;BMP_temperature;BMP_pressure;BME280_temperature;BME280_humidity;BME280_pressure;Samples;Min_cycle;Max_cycle;Signal;HPM_P1;HPM_P2
2022/04/16 00:00:55;;;;;;;12.68;8.07;;;;;;;9.27;73.14;103095.53;5012960;28;20113;-40
2022/04/16 00:03:24;;;;;;;15.15;8.63;;;;;;;9.35;73.17;103107.84;5012563;28;20080;-42
2022/04/16 00:05:51;;;;;;;11.32;8.43;;;;;;;9.10;74.06;103114.09;5013144;28;20076;-40
2022/04/16 00:08:17;;;;;;;13.30;9.10;;;;;;;9.09;74.32;103111.63;5013807;28;20543;-40
2022/04/16 00:10:42;;;;;;;14.32;9.25;;;;;;;9.03;74.67;103100.88;5013205;28;20022;-40
2022/04/16 00:13:08;;;;;;;14.32;9.50;;;;;;;9.21;73.52;103108.13;5013183;28;20053;-43
2022/04/16 00:15:33;;;;;;;14.98;9.70;;;;;;;9.06;74.19;103106.72;5013623;28;20447;-41
2022/04/16 00:17:58;;;;;;;17.00;9.57;;;;;;;8.99;74.52;103114.13;5013571;28;20026;-40
2022/04/16 00:20:25;;;;;;;15.43;10.20;;;;;;;9.11;74.39;103109.75;5013352;28;20420;-41
2022/04/16 00:22:51;;;;;;;16.17;10.02;;;;;;;8.93;74.40;103104.28;4995657;28;20025;-41
2022/04/16 00:25:17;;;;;;;16.50;10.65;;;;;;;8.88;75.29;103102.06;5013293;28;20038;-41
2022/04/16 00:27:42;;;;;;;15.50;11.23;;;;;;;9.05;74.84;103108.47;5013890;28;20029;-41
2022/04/16 00:30:08;;;;;;;19.15;10.55;;;;;;;8.96;75.12;103110.03;5013472;28;20125;-41
2022/04/16 00:32:34;;;;;;;18.00;11.07;;;;;;;8.89;75.55;103110.59;5012982;28;20029;-41
2022/04/16 00:35:02;;;;;;;19.92;11.02;;;;;;;8.85;74.18;103110.03;4995736;28;20034;-41
2022/04/16 00:37:27;;;;;;;18.52;11.05;;;;;;;8.90;74.40;103113.06;5015397;28;20018;-42
2022/04/16 00:39:53;;;;;;;16.25;10.70;;;;;;;8.86;74.62;103114.25;5016781;28;20080;-42
2022/04/16 00:42:18;;;;;;;18.77;11.30;;;;;;;8.81;75.01;103104.28;4999434;28;20026;-40
2022/04/16 00:44:43;;;;;;;17.00;10.82;;;;;;;9.05;74.45;103113.63;5016955;28;20121;-40
2022/04/16 00:47:09;;;;;;;16.02;10.93;;;;;;;8.91;74.46;103121.63;5016917;28;20033;-40
2022/04/16 00:49:35;;;;;;;23.27;11.32;;;;;;;8.83;74.89;103119.63;5017046;28;20524;-41
2022/04/16 00:52:01;;;;;;;15.07;11.25;;;;;;;8.75;75.86;103112.50;5016829;28;20480;-44
2022/04/16 00:54:27;;;;;;;16.25;11.45;;;;;;;8.78;76.13;103104.53;5016989;28;20045;-41
2022/04/16 00:56:52;;;;;;;17.00;11.25;;;;;;;8.91;75.16;103116.47;5017360;28;20461;-42
2022/04/16 00:59:17;;;;;;;18.02;11.50;;;;;;;8.95;74.74;103118.72;5016975;28;20033;-42
2022/04/16 01:01:43;;;;;;;17.42;11.27;;;;;;;8.78;76.47;103119.19;4999026;28;20026;-41
2022/04/16 01:04:08;;;;;;;18.70;12.38;;;;;;;8.78;76.67;103119.19;4998955;28;20464;-41
2022/04/16 01:06:42;;;;;;;19.73;12.13;;;;;;;8.73;76.66;103109.22;4999086;28;20036;-41
2022/04/16 01:09:07;;;;;;;16.70;11.50;;;;;;;8.59;77.09;103122.34;5016306;28;20058;-41
2022/04/16 01:11:32;;;;;;;17.15;11.93;;;;;;;8.52;77.24;103114.25;5016355;28;20029;-41
2022/04/16 01:14:00;;;;;;;16.73;11.18;;;;;;;8.71;76.90;103121.41;5016225;28;20053;-41
2022/04/16 01:16:26;;;;;;;20.13;12.25;;;;;;;8.80;76.66;103125.88;5016465;28;20026;-41
2022/04/16 01:18:52;;;;;;;16.98;11.00;;;;;;;8.93;76.21;103125.72;5016276;28;20049;-41
2022/04/16 01:21:18;;;;;;;16.95;10.98;;;;;;;8.86;75.54;103122.00;5016430;28;20068;-41
2022/04/16 01:23:43;;;;;;;19.17;11.27;;;;;;;8.72;76.63;103137.72;4998570;28;20033;-41
2022/04/16 01:26:08;;;;;;;16.42;11.38;;;;;;;8.75;76.18;103134.91;5016118;28;20022;-41
2022/04/16 01:28:34;;;;;;;16.67;11.45;;;;;;;8.77;75.85;103143.31;5016068;28;20076;-41
2022/04/16 01:30:59;;;;;;;16.85;11.25;;;;;;;8.97;76.48;103131.47;5016254;28;20022;-41
2022/04/16 01:33:25;;;;;;;19.13;11.55;;;;;;;9.05;75.14;103131.69;5016052;28;20022;-41
2022/04/16 01:35:51;;;;;;;16.35;11.18;;;;;;;8.95;75.92;103125.63;5016286;28;20470;-41
2022/04/16 01:38:16;;;;;;;19.20;11.25;;;;;;;8.97;75.50;103142.59;5016189;28;20112;-41
2022/04/16 01:40:41;;;;;;;21.48;12.23;;;;;;;8.78;75.79;103132.91;4998341;28;20385;-40
2022/04/16 01:43:07;;;;;;;19.30;12.05;;;;;;;8.74;76.55;103135.81;5016089;28;20080;-42
2022/04/16 01:45:33;;;;;;;19.38;11.70;;;;;;;8.67;76.83;103132.91;5015822;28;20030;-42
2022/04/16 01:47:59;;;;;;;17.20;11.60;;;;;;;8.53;77.45;103117.66;4997544;28;20045;-41
2022/04/16 01:50:24;;;;;;;18.17;11.50;;;;;;;8.64;76.86;103140.03;5015736;28;20025;-41
2022/04/16 01:52:49;;;;;;;18.02;11.55;;;;;;;8.36;77.23;103137.75;5016226;28;20030;-42
2022/04/16 01:55:15;;;;;;;18.02;11.55;;;;;;;8.42;77.51;103133.91;4998190;28;20036;-41
2022/04/16 01:57:41;;;;;;;18.65;12.13;;;;;;;8.39;78.14;103146.22;5015723;28;20026;-41
2022/04/16 02:00:09;;;;;;;17.70;11.80;;;;;;;8.35;78.47;103137.88;4998466;28;20014;-41
2022/04/16 02:02:36;;;;;;;19.00;12.48;;;;;;;8.18;78.05;103122.84;5015764;28;20145;-42
2022/04/16 02:05:05;;;;;;;18.60;12.25;;;;;;;8.38;78.55;103132.47;5015753;28;20018;-41
2022/04/16 02:07:31;;;;;;;20.98;12.13;;;;;;;8.43;78.59;103132.16;5015669;28;20036;-41
2022/04/16 02:09:56;;;;;;;18.08;11.90;;;;;;;8.46;77.96;103135.34;5015505;28;20033;-41
2022/04/16 02:12:22;;;;;;;18.27;12.02;;;;;;;8.27;78.22;103127.31;5015306;28;20533;-41
2022/04/16 02:14:47;;;;;;;21.02;12.20;;;;;;;8.23;79.35;103131.03;5015597;28;20026;-41
2022/04/16 02:17:12;;;;;;;20.38;12.70;;;;;;;8.19;78.75;103137.34;4997700;28;20018;-41
2022/04/16 02:19:38;;;;;;;20.17;11.55;;;;;;;7.97;79.29;103141.53;5015469;28;20030;-41
2022/04/16 02:22:04;;;;;;;19.48;12.27;;;;;;;7.80;80.28;103145.31;5014995;28;20040;-41
2022/04/16 02:24:29;;;;;;;20.33;12.63;;;;;;;7.80;80.91;103139.34;4997523;28;20037;-41
2022/04/16 02:26:55;;;;;;;17.52;11.73;;;;;;;7.62;81.24;103144.88;5015255;28;20022;-40
2022/04/16 02:29:21;;;;;;;23.02;12.57;;;;;;;7.58;81.45;103140.88;5014918;28;20076;-40
2022/04/16 02:31:47;;;;;;;19.65;12.57;;;;;;;7.71;81.99;103148.56;5014991;28;20026;-40
2022/04/16 02:34:13;;;;;;;20.75;12.52;;;;;;;7.51;82.79;103143.97;5015129;28;20014;-41
2022/04/16 02:36:40;;;;;;;23.48;12.25;;;;;;;7.62;82.18;103147.47;5015183;28;20417;-40
2022/04/16 02:39:05;;;;;;;20.08;12.20;;;;;;;7.47;81.65;103144.19;5015153;28;20028;-40
2022/04/16 02:41:31;;;;;;;17.63;12.20;;;;;;;7.56;82.88;103147.06;5014908;28;20460;-39
2022/04/16 02:43:58;;;;;;;19.48;12.43;;;;;;;7.54;82.40;103146.34;5014790;28;20033;-41
2022/04/16 02:49:08;;;;;;;20.80;12.25;;;;;;;7.47;82.89;103151.91;5015557;28;20044;-41
2022/04/16 02:51:34;;;;;;;21.27;12.63;;;;;;;7.55;82.01;103150.56;5014485;28;20022;-41
2022/04/16 02:53:59;;;;;;;25.20;13.07;;;;;;;7.50;82.95;103152.63;5014967;28;20380;-41
2022/04/16 02:56:25;;;;;;;18.85;12.55;;;;;;;7.32;82.75;103155.56;5014567;28;20149;-41
2022/04/16 02:58:50;;;;;;;23.92;13.15;;;;;;;7.26;83.63;103150.06;5014065;28;20030;-41
2022/04/16 03:01:16;;;;;;;22.92;13.32;;;;;;;7.30;83.12;103157.44;4996732;28;20021;-41
2022/04/16 03:03:41;;;;;;;22.13;13.55;;;;;;;7.23;83.83;103154.47;4996790;28;20021;-41
2022/04/16 03:06:07;;;;;;;23.15;13.32;;;;;;;7.29;83.09;103149.84;5014460;28;20113;-41
2022/04/16 03:08:32;;;;;;;21.98;13.55;;;;;;;7.11;83.75;103157.91;5014484;28;20037;-39
2022/04/16 03:10:57;;;;;;;24.27;13.55;;;;;;;7.05;84.85;103153.19;5014118;28;20476;-40
2022/04/16 03:13:22;;;;;;;21.95;13.43;;;;;;;7.09;84.99;103157.19;4996455;28;20068;-39
2022/04/16 03:18:32;;;;;;;21.92;13.23;;;;;;;6.88;85.75;103156.91;5014464;28;20044;-40
2022/04/16 03:20:58;;;;;;;24.10;13.65;;;;;;;6.93;85.52;103154.84;5014404;28;20097;-39
2022/04/16 03:23:24;;;;;;;22.23;13.77;;;;;;;7.15;85.43;103155.94;5014311;28;20120;-39
2022/04/16 03:25:49;;;;;;;27.00;13.60;;;;;;;6.97;84.82;103158.03;5012777;28;20120;-40
2022/04/16 03:28:15;;;;;;;22.88;13.43;;;;;;;6.91;86.23;103155.88;5013800;28;20026;-41
2022/04/16 03:30:41;;;;;;;26.33;14.30;;;;;;;6.91;85.72;103159.25;5013802;28;20018;-40
2022/04/16 03:33:08;;;;;;;21.80;13.80;;;;;;;6.92;86.15;103157.50;5013850;28;20528;-41
2022/04/16 03:35:34;;;;;;;23.33;14.15;;;;;;;6.84;85.86;103149.50;5013823;28;20465;-42
2022/04/16 03:37:59;;;;;;;21.40;13.65;;;;;;;6.94;85.18;103155.66;5014170;28;20076;-42
2022/04/16 03:40:26;;;;;;;23.65;13.30;;;;;;;6.94;86.23;103156.47;4996351;28;20037;-42
2022/04/16 03:42:56;;;;;;;22.58;13.43;;;;;;;6.88;86.04;103164.63;5013946;28;20036;-43
2022/04/16 03:45:23;;;;;;;23.42;13.23;;;;;;;6.68;86.96;103153.09;5014266;28;20030;-42
2022/04/16 03:47:50;;;;;;;21.38;13.27;;;;;;;6.75;87.20;103167.19;4996167;28;20112;-42
2022/04/16 03:50:16;;;;;;;30.65;14.13;;;;;;;6.73;87.04;103161.34;5013409;28;20116;-42
2022/04/16 03:52:43;;;;;;;27.23;13.90;;;;;;;6.85;87.09;103162.25;5013554;28;20488;-40
2022/04/16 04:00:52;;;;;;;22.58;13.80;;;;;;;6.67;87.75;103163.47;5013716;28;20040;-40
2022/04/16 04:03:17;;;;;;;24.15;13.73;;;;;;;6.66;87.33;103166.97;5013386;28;20033;-41
2022/04/16 04:05:45;;;;;;;23.55;13.07;;;;;;;6.66;88.00;103169.56;5013452;28;20040;-43
2022/04/16 04:08:11;;;;;;;22.25;13.75;;;;;;;6.73;86.91;103168.19;5013732;28;20030;-40
2022/04/16 04:10:37;;;;;;;24.17;15.40;;;;;;;6.69;87.32;103172.72;5013687;28;20366;-42
2022/04/16 04:13:02;;;;;;;25.45;14.10;;;;;;;6.58;87.75;103176.94;5016819;28;20046;-41
2022/04/16 04:15:29;;;;;;;23.33;14.05;;;;;;;6.48;88.62;103174.16;5017533;28;20033;-42
2022/04/16 04:17:56;;;;;;;23.45;13.93;;;;;;;6.56;87.60;103169.34;5016150;28;20385;-42
2022/04/16 04:20:21;;;;;;;22.77;14.63;;;;;;;6.61;87.65;103169.84;5017399;28;20025;-41
2022/04/16 04:22:46;;;;;;;23.17;13.52;;;;;;;6.54;88.05;103177.16;5017591;28;20026;-41
2022/04/16 04:25:12;;;;;;;24.40;14.32;;;;;;;6.50;88.05;103177.44;5017373;28;20075;-42
2022/04/16 04:27:37;;;;;;;23.00;13.93;;;;;;;6.51;88.34;103181.66;4999781;28;20033;-41
2022/04/16 04:30:03;;;;;;;22.02;14.15;;;;;;;6.59;88.33;103181.16;5017261;28;20167;-40
2022/04/16 04:32:29;;;;;;;24.98;13.88;;;;;;;6.52;88.07;103178.16;5017485;28;20472;-40
2022/04/16 04:34:54;;;;;;;22.85;14.27;;;;;;;6.54;88.18;103184.03;5017184;28;20089;-42
2022/04/16 04:37:19;;;;;;;25.17;14.30;;;;;;;6.35;88.65;103179.28;5017092;28;20108;-40
2022/04/16 04:39:44;;;;;;;27.30;14.90;;;;;;;6.40;89.64;103189.25;5017010;28;20022;-41
2022/04/16 04:42:10;;;;;;;23.67;14.23;;;;;;;6.26;89.49;103185.84;5016967;28;20030;-41
2022/04/16 04:44:35;;;;;;;23.05;15.32;;;;;;;6.53;88.84;103183.22;5017415;28;20471;-40
2022/04/16 04:47:00;;;;;;;23.17;14.15;;;;;;;6.31;89.65;103186.38;4999359;28;20439;-40
2022/04/16 04:49:26;;;;;;;24.58;15.05;;;;;;;6.40;88.85;103190.06;5017062;28;20032;-41
2022/04/16 04:51:51;;;;;;;28.38;15.15;;;;;;;6.29;90.10;103185.63;5017951;28;20049;-40
2022/04/16 04:54:16;;;;;;;26.48;15.00;;;;;;;6.46;90.44;103197.38;5016818;28;20018;-43
2022/04/16 04:56:42;;;;;;;26.67;15.70;;;;;;;6.57;90.00;103194.09;5016785;28;20033;-41
2022/04/16 04:59:07;;;;;;;25.52;15.98;;;;;;;6.57;88.92;103195.84;5016811;28;20032;-41
2022/04/16 05:01:32;;;;;;;25.77;16.00;;;;;;;6.49;89.13;103186.91;5016714;28;20113;-41
2022/04/16 05:03:57;;;;;;;27.20;15.25;;;;;;;6.61;88.68;103200.69;5016667;28;20029;-41
2022/04/16 05:06:23;;;;;;;25.95;15.30;;;;;;;6.77;88.27;103211.59;5016935;28;20025;-40
2022/04/16 05:08:48;;;;;;;26.27;15.77;;;;;;;6.73;88.75;103207.59;5016743;28;20033;-41
2022/04/16 05:11:13;;;;;;;27.77;15.57;;;;;;;6.64;88.41;103202.22;4998877;28;20022;-41
2022/04/16 05:13:39;;;;;;;26.27;15.77;;;;;;;6.85;88.54;103207.66;5016371;28;20048;-41
2022/04/16 05:16:05;;;;;;;26.50;15.20;;;;;;;6.77;88.03;103200.50;5016718;28;20030;-41
2022/04/16 05:18:30;;;;;;;25.63;15.52;;;;;;;6.83;88.12;103210.34;4998784;28;20033;-42
2022/04/16 05:20:55;;;;;;;26.17;15.77;;;;;;;6.71;88.64;103199.16;5016394;28;20484;-41
2022/04/16 05:23:20;;;;;;;26.58;15.93;;;;;;;6.99;88.90;103216.13;5016607;28;20026;-41
2022/04/16 05:25:46;;;;;;;26.85;16.38;;;;;;;7.03;87.60;103206.44;5016603;28;20167;-41
2022/04/16 05:28:11;;;;;;;27.70;17.17;;;;;;;7.08;87.77;103213.84;5016214;28;20061;-42
2022/04/16 05:30:44;;;;;;;27.77;16.00;;;;;;;7.17;87.02;103223.53;4998492;28;20103;-41
2022/04/16 05:35:58;;;;;;;26.52;16.40;;;;;;;7.27;87.71;103226.28;4995267;28;20154;-40
2022/04/16 05:38:23;;;;;;;28.90;16.38;;;;;;;7.36;86.78;103233.34;5016542;28;20030;-41
2022/04/16 05:40:49;;;;;;;27.25;16.95;;;;;;;7.34;86.75;103235.22;5015968;28;20028;-41
2022/04/16 05:43:14;;;;;;;28.50;17.00;;;;;;;7.53;86.98;103238.16;5016522;28;20102;-41
2022/04/16 05:45:39;;;;;;;28.30;16.60;;;;;;;7.61;85.91;103240.19;5016183;28;20026;-41
2022/04/16 05:48:05;;;;;;;27.98;16.85;;;;;;;7.37;86.45;103253.84;5016440;28;20424;-40
2022/04/16 05:50:31;;;;;;;29.42;17.35;;;;;;;7.51;87.25;103244.31;5015970;28;20034;-40
2022/04/16 05:52:57;;;;;;;26.83;16.60;;;;;;;7.63;86.16;103253.78;5015776;28;20091;-41
2022/04/16 05:55:22;;;;;;;27.73;17.00;;;;;;;7.34;87.43;103261.78;5015952;28;20025;-40
2022/04/16 05:57:48;;;;;;;32.38;18.95;;;;;;;7.61;86.83;103255.63;5015712;28;20036;-40
2022/04/16 06:00:13;;;;;;;29.60;17.42;;;;;;;7.95;85.66;103256.66;5016142;28;20034;-42
2022/04/16 06:02:40;;;;;;;30.17;17.60;;;;;;;7.89;85.80;103268.22;5015468;28;20049;-40
2022/04/16 06:05:06;;;;;;;30.65;16.48;;;;;;;9.76;79.23;103271.53;4998387;28;20041;-41
2022/04/16 06:07:32;;;;;;;23.67;16.35;;;;;;;12.58;67.66;103259.81;5015728;28;20029;-42
2022/04/16 06:09:57;;;;;;;22.98;15.57;;;;;;;13.61;64.56;103274.47;5015794;28;20025;-42
2022/04/16 06:12:23;;;;;;;26.33;16.08;;;;;;;12.71;64.44;103264.69;4994421;28;20054;-43
2022/04/16 06:14:52;;;;;;;24.50;16.55;;;;;;;10.91;70.02;103264.84;4996090;28;20424;-42
2022/04/16 06:17:18;;;;;;;24.67;16.10;;;;;;;9.89;74.23;103271.38;4993991;28;20030;-42
2022/04/16 06:19:43;;;;;;;26.20;17.33;;;;;;;9.04;78.66;103274.50;4995762;28;20029;-43
2022/04/16 06:22:11;;;;;;;27.33;17.27;;;;;;;8.54;82.39;103268.75;4995695;28;20089;-42
2022/04/16 06:24:39;;;;;;;28.73;17.52;;;;;;;8.67;82.59;103268.69;4995822;28;20027;-42
2022/04/16 06:27:05;;;;;;;29.45;18.15;;;;;;;8.50;83.78;103268.16;4995799;28;20077;-42
2022/04/16 06:29:30;;;;;;;31.75;19.63;;;;;;;8.38;83.96;103268.22;4994449;28;20049;-43
2022/04/16 06:31:55;;;;;;;30.73;19.75;;;;;;;8.36;85.16;103276.06;4995432;28;20397;-39
2022/04/16 06:34:23;;;;;;;34.42;21.10;;;;;;;8.08;85.56;103278.03;4994881;28;20088;-40
2022/04/16 06:36:49;;;;;;;37.63;21.60;;;;;;;8.51;85.59;103271.56;4995602;28;20062;-40
2022/04/16 06:39:14;;;;;;;36.03;21.05;;;;;;;8.42;84.53;103277.41;4995873;28;20053;-45
2022/04/16 06:41:39;;;;;;;39.75;21.55;;;;;;;7.97;86.44;103278.00;4995288;28;20509;-41
2022/04/16 06:44:04;;;;;;;38.45;21.85;;;;;;;7.92;87.52;103285.22;4994932;28;20093;-41
2022/04/16 06:46:30;;;;;;;49.20;23.00;;;;;;;8.10;87.68;103293.38;4993631;28;20032;-40
2022/04/16 06:48:55;;;;;;;39.38;23.02;;;;;;;8.15;86.90;103293.88;4993576;28;20015;-42
2022/04/16 06:51:20;;;;;;;38.15;22.77;;;;;;;8.29;86.51;103288.56;4993810;28;20446;-41
2022/04/16 06:53:45;;;;;;;44.17;22.65;;;;;;;8.45;87.15;103300.38;4995730;28;20037;-42
2022/04/16 06:56:11;;;;;;;38.20;21.83;;;;;;;8.81;86.41;103296.84;4995347;28;20072;-41
2022/04/16 06:58:36;;;;;;;36.80;22.27;;;;;;;8.54;85.48;103290.19;4993986;28;20578;-42
2022/04/16 07:01:01;;;;;;;36.85;21.48;;;;;;;8.74;85.76;103293.91;4994952;28;20031;-40
2022/04/16 07:03:26;;;;;;;37.42;21.88;;;;;;;9.23;83.83;103299.72;4994857;28;20034;-41
2022/04/16 07:05:52;;;;;;;37.70;20.58;;;;;;;8.77;85.70;103300.59;4994903;28;20479;-40
2022/04/16 07:08:17;;;;;;;36.95;20.98;;;;;;;9.63;82.47;103307.81;4994843;28;20034;-42
2022/04/16 07:10:43;;;;;;;35.38;20.80;;;;;;;9.89;80.87;103297.22;4994324;28;20030;-41
2022/04/16 07:13:08;;;;;;;30.73;19.33;;;;;;;11.88;71.82;103298.88;5006088;28;20045;-42
2022/04/16 07:15:33;;;;;;;30.63;18.88;;;;;;;13.81;66.33;103298.56;5014191;28;20376;-42
2022/04/16 07:17:59;;;;;;;25.33;17.73;;;;;;;13.01;65.79;103293.03;5014742;28;20088;-42
2022/04/16 07:20:25;;;;;;;26.98;17.85;;;;;;;14.80;59.79;103282.78;5014358;28;20072;-42
2022/04/16 07:22:50;;;;;;;28.10;18.23;;;;;;;17.70;53.29;103285.88;5014099;28;20476;-42
2022/04/16 07:25:15;;;;;;;26.90;16.17;;;;;;;18.31;50.16;103288.53;5014533;28;20465;-42
2022/04/16 07:27:43;;;;;;;22.67;15.98;;;;;;;17.44;53.68;103293.22;5013685;28;20041;-43
2022/04/16 07:30:09;;;;;;;22.73;16.38;;;;;;;17.60;50.83;103293.91;5013976;28;20068;-43
2022/04/16 07:32:34;;;;;;;21.02;15.95;;;;;;;17.72;50.17;103289.13;5014266;28;20029;-43
2022/04/16 07:34:59;;;;;;;21.65;15.35;;;;;;;18.27;50.32;103295.94;5013438;28;20026;-43
2022/04/16 07:37:25;;;;;;;17.85;14.75;;;;;;;20.21;45.28;103288.59;5013750;28;20163;-43
2022/04/16 07:39:50;;;;;;;18.77;14.45;;;;;;;17.59;48.18;103294.09;4996276;28;20495;-40
2022/04/16 07:42:15;;;;;;;16.75;14.25;;;;;;;18.56;48.64;103304.00;5013909;28;20033;-42
2022/04/16 07:44:41;;;;;;;20.23;15.23;;;;;;;18.10;49.03;103298.88;5013764;28;20461;-43
2022/04/16 07:47:06;;;;;;;18.63;14.43;;;;;;;18.45;47.87;103294.78;4996295;28;20018;-43
2022/04/16 07:49:31;;;;;;;17.75;14.23;;;;;;;18.61;47.97;103291.19;5013953;28;20097;-41
2022/04/16 07:51:57;;;;;;;17.20;13.45;;;;;;;19.42;45.46;103289.44;5014097;28;20022;-43
2022/04/16 07:54:22;;;;;;;18.05;13.07;;;;;;;19.22;44.54;103289.22;5014606;28;20022;-42
2022/04/16 07:56:47;;;;;;;16.48;12.60;;;;;;;18.72;46.82;103285.50;5014030;28;20176;-42
2022/04/16 07:59:13;;;;;;;18.20;12.90;;;;;;;20.68;42.19;103287.91;5013687;28;20036;-43
2022/04/16 08:01:38;;;;;;;16.83;12.43;;;;;;;20.21;41.98;103289.38;5013836;28;20029;-41
2022/04/16 08:04:04;;;;;;;17.88;13.35;;;;;;;20.72;42.28;103283.91;4996066;28;20108;-42
2022/04/16 08:06:29;;;;;;;15.95;12.48;;;;;;;18.75;46.00;103285.16;5013937;28;20084;-41
2022/04/16 08:09:00;;;;;;;18.25;13.00;;;;;;;19.32;44.82;103281.84;4995834;28;20054;-41
2022/04/16 08:11:30;;;;;;;17.27;13.02;;;;;;;18.98;45.23;103290.31;4996271;28;20025;-41
2022/04/16 08:13:55;;;;;;;18.23;12.77;;;;;;;18.73;44.98;103287.16;5012203;28;20169;-41
2022/04/16 08:16:20;;;;;;;21.00;12.20;;;;;;;20.05;43.82;103297.53;5013575;28;20504;-42
2022/04/16 08:18:46;;;;;;;19.33;12.43;;;;;;;19.19;45.04;103302.69;4995962;28;20017;-42
2022/04/16 08:21:14;;;;;;;16.80;12.52;;;;;;;19.37;44.61;103307.53;4995962;28;20022;-44
2022/04/16 08:23:44;;;;;;;15.32;12.13;;;;;;;18.32;46.34;103305.03;5013771;28;20026;-41
2022/04/16 08:26:10;;;;;;;16.67;11.90;;;;;;;18.10;47.11;103317.19;5014010;28;20026;-42
2022/04/16 08:28:36;;;;;;;19.48;13.23;;;;;;;16.69;50.15;103307.50;4996319;28;20134;-42
2022/04/16 08:31:02;;;;;;;16.48;11.93;;;;;;;17.67;48.64;103307.13;4995896;28;20177;-41
2022/04/16 08:33:27;;;;;;;16.33;11.80;;;;;;;16.98;49.68;103301.72;5013969;28;20056;-42
2022/04/16 08:35:52;;;;;;;17.75;12.63;;;;;;;16.64;50.81;103313.19;5013663;28;20030;-43
2022/04/16 08:38:17;;;;;;;19.35;12.57;;;;;;;16.46;51.52;103302.94;5013370;28;20112;-41
2022/04/16 08:40:43;;;;;;;16.55;12.10;;;;;;;16.79;51.39;103305.53;5014323;28;20105;-41
2022/04/16 08:43:09;;;;;;;17.48;11.98;;;;;;;17.56;49.19;103305.72;5013560;28;20033;-43
2022/04/16 08:45:36;;;;;;;17.30;12.60;;;;;;;17.57;49.84;103301.28;5013290;28;20106;-42
2022/04/16 08:48:02;;;;;;;16.90;12.00;;;;;;;17.05;49.32;103300.06;5013857;28;20084;-43
2022/04/16 08:50:27;;;;;;;17.48;12.52;;;;;;;16.85;51.33;103306.66;5012427;28;20034;-41
2022/04/16 08:52:53;;;;;;;17.58;12.07;;;;;;;17.01;50.20;103305.81;4979172;28;20365;-42
2022/04/16 08:55:18;;;;;;;17.80;11.80;;;;;;;15.11;54.30;103308.34;5011481;28;20036;-41
2022/04/16 08:57:43;;;;;;;16.13;11.82;;;;;;;16.20;53.20;103305.72;5014818;28;20376;-42
2022/04/16 09:00:13;;;;;;;17.20;11.65;;;;;;;17.22;51.34;103306.03;5016804;28;20018;-43
2022/04/16 09:02:49;;;;;;;15.63;11.25;;;;;;;17.10;49.83;103307.41;4999177;28;20071;-41
2022/04/16 09:05:17;;;;;;;16.40;11.35;;;;;;;17.46;49.77;103314.75;5016784;28;20033;-41
2022/04/16 09:07:44;;;;;;;20.45;11.57;;;;;;;16.73;50.35;103300.94;5016577;28;20040;-41
2022/04/16 09:10:10;;;;;;;15.68;11.13;;;;;;;17.13;48.78;103307.06;4998807;28;20496;-40
2022/04/16 09:12:38;;;;;;;14.50;10.75;;;;;;;17.97;46.92;103313.34;4998836;28;20049;-40
2022/04/16 09:15:11;;;;;;;15.48;10.35;;;;;;;17.91;48.04;103308.81;5016862;28;20505;-41
2022/04/16 09:17:38;;;;;;;17.63;11.18;;;;;;;17.52;48.41;103311.44;4999059;28;20026;-41
2022/04/16 09:20:11;;;;;;;16.35;11.30;;;;;;;17.25;48.59;103302.28;5016565;28;20105;-42
2022/04/16 09:22:40;;;;;;;16.20;11.30;;;;;;;16.28;50.32;103294.47;4998780;28;20026;-42
2022/04/16 09:25:16;;;;;;;17.20;11.27;;;;;;;16.07;51.64;103300.16;4998607;28;20075;-42
2022/04/16 09:27:46;;;;;;;16.70;10.90;;;;;;;15.90;51.78;103306.34;5016461;28;20087;-43
2022/04/16 09:30:13;;;;;;;13.15;9.60;;;;;;;16.21;49.61;103293.50;5016298;28;20034;-42
2022/04/16 09:32:44;;;;;;;13.82;10.02;;;;;;;15.39;51.49;103292.50;5016312;28;20034;-37
2022/04/16 09:35:29;;;;;;;14.65;9.93;;;;;;;16.10;51.39;103296.44;5016368;28;20492;-36
2022/04/16 09:38:03;;;;;;;14.30;9.82;;;;;;;16.98;49.53;103290.47;5016282;28;20405;-38
2022/04/16 09:40:30;;;;;;;15.20;9.73;;;;;;;17.65;48.95;103287.38;5016624;28;20454;-36
2022/04/16 09:42:57;;;;;;;12.88;9.35;;;;;;;17.88;46.72;103297.88;4998183;28;20437;-35
2022/04/16 09:45:23;;;;;;;11.77;9.20;;;;;;;17.57;47.47;103303.91;5016192;28;20075;-36
2022/04/16 09:47:50;;;;;;;13.10;8.15;;;;;;;15.97;49.22;103302.94;5014919;28;20038;-37
2022/04/16 09:50:17;;;;;;;10.82;7.78;;;;;;;16.63;47.27;103297.69;5015972;28;20018;-36
2022/04/16 09:52:43;;;;;;;12.00;8.63;;;;;;;15.85;49.17;103295.56;5015945;28;20021;-35
2022/04/16 09:55:10;;;;;;;12.23;8.70;;;;;;;16.64;47.36;103281.88;5015403;28;20428;-36
2022/04/16 09:57:38;;;;;;;10.75;7.53;;;;;;;16.90;46.69;103283.47;5015108;28;20428;-35
2022/04/16 10:00:05;;;;;;;10.02;7.25;;;;;;;17.34;45.98;103290.81;5015454;28;20022;-36
2022/04/16 10:02:31;;;;;;;9.93;7.20;;;;;;;17.24;45.70;103290.22;5015373;28;20026;-35
2022/04/16 10:04:59;;;;;;;10.65;7.20;;;;;;;17.87;45.04;103289.22;5015356;28;20037;-36
2022/04/16 10:07:25;;;;;;;10.65;7.15;;;;;;;16.81;46.22;103293.13;5015666;28;20033;-36
2022/04/16 10:09:53;;;;;;;10.07;6.57;;;;;;;16.80;46.25;103288.06;5013871;28;20037;-35
2022/04/16 10:15:11;;;;;;;7.95;5.45;;;;;;;16.21;46.68;103288.28;5015289;28;20030;-37
2022/04/16 10:17:42;;;;;;;6.40;5.00;;;;;;;16.25;47.96;103286.97;4997685;28;20026;-35
2022/04/16 10:20:15;;;;;;;8.52;5.80;;;;;;;17.45;43.48;103287.81;5015540;28;20097;-35
2022/04/16 10:22:51;;;;;;;7.60;4.82;;;;;;;16.85;45.22;103277.94;5015129;28;20068;-37
2022/04/16 10:25:31;;;;;;;7.00;5.15;;;;;;;18.59;43.02;103277.47;5015075;28;20032;-35
2022/04/16 10:28:07;;;;;;;7.63;5.32;;;;;;;17.84;42.64;103271.25;5014636;28;20030;-36
2022/04/16 10:30:52;;;;;;;8.70;5.40;;;;;;;18.03;41.94;103281.22;5015020;28;20026;-36
2022/04/16 10:33:27;;;;;;;10.13;6.40;;;;;;;18.27;41.18;103280.22;5015009;28;20058;-37
2022/04/16 10:35:56;;;;;;;9.18;6.32;;;;;;;17.55;42.64;103282.34;5015064;28;20049;-36
2022/04/16 10:38:42;;;;;;;9.32;6.22;;;;;;;16.38;44.97;103279.47;5015108;28;20364;-36
2022/04/16 10:41:11;;;;;;;10.18;6.10;;;;;;;16.55;45.86;103275.03;5013390;28;20030;-35
2022/04/16 10:43:36;;;;;;;10.93;5.38;;;;;;;16.43;44.67;103279.78;5014880;28;20428;-37
2022/04/16 10:46:08;;;;;;;7.20;4.97;;;;;;;17.28;43.69;103271.38;5015266;28;20022;-36
2022/04/16 10:48:36;;;;;;;6.57;4.78;;;;;;;17.75;41.43;103272.25;5014652;28;20030;-35
2022/04/16 10:51:01;;;;;;;13.65;5.10;;;;;;;18.89;40.80;103266.03;5014582;28;20080;-35
2022/04/16 10:53:32;;;;;;;6.80;4.85;;;;;;;18.43;40.68;103271.41;5015553;28;20033;-36
2022/04/16 10:56:09;;;;;;;6.38;4.20;;;;;;;17.47;40.65;103269.34;5014651;28;20040;-35
2022/04/16 10:58:35;;;;;;;8.55;4.47;;;;;;;18.71;40.76;103261.13;5014563;28;20030;-36
2022/04/16 11:01:08;;;;;;;8.25;4.60;;;;;;;18.60;38.71;103260.75;5014722;28;20412;-36
2022/04/16 11:03:46;;;;;;;11.35;4.80;;;;;;;17.83;41.39;103261.78;5014630;28;20104;-36
2022/04/16 11:06:12;;;;;;;9.30;4.45;;;;;;;17.91;42.82;103266.13;5014539;28;20049;-37
2022/04/16 11:08:38;;;;;;;7.63;4.85;;;;;;;18.39;40.36;103264.09;5014447;28;20061;-37
2022/04/16 11:11:04;;;;;;;5.90;4.22;;;;;;;17.77;41.04;103254.59;5013914;28;20369;-35
2022/04/16 11:13:33;;;;;;;7.70;4.70;;;;;;;17.93;40.26;103262.38;5014226;28;20045;-36
2022/04/16 11:15:59;;;;;;;5.15;3.85;;;;;;;17.97;41.99;103252.34;5014213;28;20038;-37
2022/04/16 11:18:26;;;;;;;6.97;4.60;;;;;;;18.16;40.07;103249.25;5014450;28;20048;-36
2022/04/16 11:20:58;;;;;;;6.72;4.20;;;;;;;19.14;38.85;103247.38;5013779;28;20018;-36
2022/04/16 11:23:27;;;;;;;6.72;4.50;;;;;;;18.13;39.63;103265.31;5014420;28;20482;-35
2022/04/16 11:34:17;;;;;;;6.60;4.53;;;;;;;17.99;39.80;103248.56;5013915;28;20407;-35
2022/04/16 11:36:43;;;;;;;6.90;4.18;;;;;;;17.38;41.99;103247.66;5013782;28;20030;-36
2022/04/16 11:39:26;;;;;;;9.45;4.57;;;;;;;18.68;40.24;103245.78;5013864;28;20025;-36